Terminal Aerodrome Forecast
Issued by NWS Missoula, MT

Home | Current Version | Previous Version | Text Only | Print | Product List | Glossary On
Versions: 1 2 3 4 5 6 7 8 9 10 11 12
000
FTUS45 KMSO 012320
TAFBTM
TAF
KBTM 012320Z 0200/0224 30010G18KT P6SM SCT150
     FM020300 VRB05KT P6SM SKC
     FM022100 02006KT P6SM SCT150=

USA.gov is the U.S. government's official web portal to all federal, state and local government web resources and services.